sensor_id;sensor_type;location;lat;lon;timestamp;P1;durP1;ratioP1;P2;durP2;ratioP2
27305;SDS011;14792;50.886;6.468;2024-03-23T00:55:22;29.18;;;7.72;;
27305;SDS011;14792;50.886;6.468;2024-03-23T00:58:24;32.88;;;8.68;;
27305;SDS011;14792;50.886;6.468;2024-03-23T01:01:26;25.45;;;6.92;;
27305;SDS011;14792;50.886;6.468;2024-03-23T01:04:27;30.32;;;7.85;;
27305;SDS011;14792;50.886;6.468;2024-03-23T01:07:29;27.93;;;7.65;;
27305;SDS011;14792;50.886;6.468;2024-03-23T01:10:30;33.00;;;7.90;;
27305;SDS011;14792;50.886;6.468;2024-03-23T01:13:32;32.25;;;8.00;;
27305;SDS011;14792;50.886;6.468;2024-03-23T01:16:33;29.98;;;8.03;;
27305;SDS011;14792;50.886;6.468;2024-03-23T01:19:35;23.57;;;7.75;;
27305;SDS011;14792;50.886;6.468;2024-03-23T01:22:37;31.33;;;8.83;;
27305;SDS011;14792;50.886;6.468;2024-03-23T01:25:38;29.80;;;8.88;;
27305;SDS011;14792;50.886;6.468;2024-03-23T01:28:40;29.80;;;8.58;;
27305;SDS011;14792;50.886;6.468;2024-03-23T01:31:41;24.63;;;8.00;;
27305;SDS011;14792;50.886;6.468;2024-03-23T01:34:43;25.43;;;6.75;;
27305;SDS011;14792;50.886;6.468;2024-03-23T01:37:45;21.42;;;6.42;;
27305;SDS011;14792;50.886;6.468;2024-03-23T01:40:46;18.90;;;6.30;;
27305;SDS011;14792;50.886;6.468;2024-03-23T01:43:48;18.42;;;5.12;;
27305;SDS011;14792;50.886;6.468;2024-03-23T01:46:49;21.07;;;5.12;;
27305;SDS011;14792;50.886;6.468;2024-03-23T01:49:51;19.12;;;5.37;;
27305;SDS011;14792;50.886;6.468;2024-03-23T01:52:53;15.58;;;3.95;;
27305;SDS011;14792;50.886;6.468;2024-03-23T01:55:54;15.95;;;3.75;;
27305;SDS011;14792;50.886;6.468;2024-03-23T01:58:56;14.33;;;3.22;;
27305;SDS011;14792;50.886;6.468;2024-03-23T02:01:57;18.75;;;3.92;;
27305;SDS011;14792;50.886;6.468;2024-03-23T02:04:59;11.05;;;2.83;;
27305;SDS011;14792;50.886;6.468;2024-03-23T02:08:00;17.65;;;3.25;;
27305;SDS011;14792;50.886;6.468;2024-03-23T02:11:02;14.45;;;3.20;;
27305;SDS011;14792;50.886;6.468;2024-03-23T02:14:04;10.43;;;2.77;;
27305;SDS011;14792;50.886;6.468;2024-03-23T02:17:05;17.85;;;3.22;;
27305;SDS011;14792;50.886;6.468;2024-03-23T02:20:07;15.90;;;2.72;;
27305;SDS011;14792;50.886;6.468;2024-03-23T02:23:15;14.20;;;2.87;;
27305;SDS011;14792;50.886;6.468;2024-03-23T02:26:16;14.65;;;3.02;;
27305;SDS011;14792;50.886;6.468;2024-03-23T02:29:17;16.85;;;3.22;;
27305;SDS011;14792;50.886;6.468;2024-03-23T02:32:19;15.90;;;3.10;;
27305;SDS011;14792;50.886;6.468;2024-03-23T02:35:21;14.33;;;2.50;;
27305;SDS011;14792;50.886;6.468;2024-03-23T02:38:22;24.45;;;7.80;;
27305;SDS011;14792;50.886;6.468;2024-03-23T02:41:24;19.77;;;3.25;;
27305;SDS011;14792;50.886;6.468;2024-03-23T02:44:25;16.50;;;3.37;;
27305;SDS011;14792;50.886;6.468;2024-03-23T02:47:27;18.02;;;3.50;;
27305;SDS011;14792;50.886;6.468;2024-03-23T02:50:29;17.27;;;3.85;;
27305;SDS011;14792;50.886;6.468;2024-03-23T02:53:30;21.85;;;3.42;;
27305;SDS011;14792;50.886;6.468;2024-03-23T02:56:32;14.18;;;3.47;;
27305;SDS011;14792;50.886;6.468;2024-03-23T02:59:33;16.48;;;3.10;;
27305;SDS011;14792;50.886;6.468;2024-03-23T03:02:35;14.30;;;2.98;;
27305;SDS011;14792;50.886;6.468;2024-03-23T03:05:36;17.30;;;3.10;;
27305;SDS011;14792;50.886;6.468;2024-03-23T03:08:38;18.25;;;3.47;;
27305;SDS011;14792;50.886;6.468;2024-03-23T03:11:40;15.70;;;2.80;;
27305;SDS011;14792;50.886;6.468;2024-03-23T03:14:41;16.57;;;2.83;;
27305;SDS011;14792;50.886;6.468;2024-03-23T03:17:43;20.00;;;3.47;;
27305;SDS011;14792;50.886;6.468;2024-03-23T03:20:44;22.80;;;4.08;;
27305;SDS011;14792;50.886;6.468;2024-03-23T03:23:46;17.32;;;3.22;;
27305;SDS011;14792;50.886;6.468;2024-03-23T03:26:48;23.10;;;4.58;;
27305;SDS011;14792;50.886;6.468;2024-03-23T03:29:49;19.92;;;3.60;;
27305;SDS011;14792;50.886;6.468;2024-03-23T03:32:52;23.10;;;3.92;;
27305;SDS011;14792;50.886;6.468;2024-03-23T03:35:55;17.52;;;3.65;;
27305;SDS011;14792;50.886;6.468;2024-03-23T03:38:56;15.80;;;3.83;;
27305;SDS011;14792;50.886;6.468;2024-03-23T03:41:58;20.75;;;3.35;;
27305;SDS011;14792;50.886;6.468;2024-03-23T03:44:59;14.00;;;3.17;;
27305;SDS011;14792;50.886;6.468;2024-03-23T03:48:01;19.82;;;2.98;;
27305;SDS011;14792;50.886;6.468;2024-03-23T03:51:03;23.12;;;3.47;;
27305;SDS011;14792;50.886;6.468;2024-03-23T03:54:04;18.15;;;3.60;;
27305;SDS011;14792;50.886;6.468;2024-03-23T03:57:06;23.20;;;4.12;;
27305;SDS011;14792;50.886;6.468;2024-03-23T04:00:07;20.72;;;3.60;;
27305;SDS011;14792;50.886;6.468;2024-03-23T04:03:12;18.17;;;4.03;;
27305;SDS011;14792;50.886;6.468;2024-03-23T04:06:20;27.05;;;4.87;;
27305;SDS011;14792;50.886;6.468;2024-03-23T04:09:21;19.57;;;3.47;;
27305;SDS011;14792;50.886;6.468;2024-03-23T04:12:23;23.98;;;3.98;;
27305;SDS011;14792;50.886;6.468;2024-03-23T04:15:24;21.17;;;3.25;;
27305;SDS011;14792;50.886;6.468;2024-03-23T04:18:26;26.65;;;4.22;;
27305;SDS011;14792;50.886;6.468;2024-03-23T04:21:28;17.45;;;3.75;;
27305;SDS011;14792;50.886;6.468;2024-03-23T04:24:29;32.28;;;3.95;;
27305;SDS011;14792;50.886;6.468;2024-03-23T04:27:31;20.17;;;3.95;;
27305;SDS011;14792;50.886;6.468;2024-03-23T04:30:32;18.73;;;4.00;;
27305;SDS011;14792;50.886;6.468;2024-03-23T04:33:34;15.48;;;3.52;;
27305;SDS011;14792;50.886;6.468;2024-03-23T04:36:35;32.90;;;4.00;;
27305;SDS011;14792;50.886;6.468;2024-03-23T04:39:37;19.52;;;3.42;;
27305;SDS011;14792;50.886;6.468;2024-03-23T04:42:39;19.35;;;3.77;;
27305;SDS011;14792;50.886;6.468;2024-03-23T04:45:40;24.18;;;3.95;;
27305;SDS011;14792;50.886;6.468;2024-03-23T04:48:42;20.68;;;3.87;;
27305;SDS011;14792;50.886;6.468;2024-03-23T04:51:43;32.67;;;3.72;;
27305;SDS011;14792;50.886;6.468;2024-03-23T04:54:45;25.88;;;4.22;;
27305;SDS011;14792;50.886;6.468;2024-03-23T04:57:47;20.92;;;3.87;;
27305;SDS011;14792;50.886;6.468;2024-03-23T05:00:52;28.70;;;4.12;;
27305;SDS011;14792;50.886;6.468;2024-03-23T05:03:50;18.17;;;3.90;;
27305;SDS011;14792;50.886;6.468;2024-03-23T05:06:51;22.67;;;4.60;;
27305;SDS011;14792;50.886;6.468;2024-03-23T05:09:53;19.27;;;4.58;;
27305;SDS011;14792;50.886;6.468;2024-03-23T05:12:55;30.37;;;4.85;;
27305;SDS011;14792;50.886;6.468;2024-03-23T05:15:56;20.15;;;4.03;;
27305;SDS011;14792;50.886;6.468;2024-03-23T05:18:58;20.12;;;3.47;;
27305;SDS011;14792;50.886;6.468;2024-03-23T05:21:59;23.10;;;4.17;;
27305;SDS011;14792;50.886;6.468;2024-03-23T05:25:01;20.00;;;4.10;;
27305;SDS011;14792;50.886;6.468;2024-03-23T05:28:02;16.85;;;4.08;;
27305;SDS011;14792;50.886;6.468;2024-03-23T05:31:04;25.08;;;4.20;;
27305;SDS011;14792;50.886;6.468;2024-03-23T05:34:06;24.72;;;4.20;;
27305;SDS011;14792;50.886;6.468;2024-03-23T05:37:07;19.52;;;4.85;;
27305;SDS011;14792;50.886;6.468;2024-03-23T05:40:09;21.70;;;5.00;;
27305;SDS011;14792;50.886;6.468;2024-03-23T05:43:10;28.77;;;6.70;;
27305;SDS011;14792;50.886;6.468;2024-03-23T05:46:12;23.07;;;5.70;;
27305;SDS011;14792;50.886;6.468;2024-03-23T05:49:15;25.00;;;5.30;;
27305;SDS011;14792;50.886;6.468;2024-03-23T05:52:15;18.57;;;5.45;;
27305;SDS011;14792;50.886;6.468;2024-03-23T05:55:17;26.68;;;5.72;;
27305;SDS011;14792;50.886;6.468;2024-03-23T05:58:18;20.70;;;5.65;;
27305;SDS011;14792;50.886;6.468;2024-03-23T06:01:20;24.63;;;5.37;;
27305;SDS011;14792;50.886;6.468;2024-03-23T06:04:22;23.50;;;5.53;;
27305;SDS011;14792;50.886;6.468;2024-03-23T06:07:23;16.55;;;4.90;;
27305;SDS011;14792;50.886;6.468;2024-03-23T06:10:25;30.48;;;5.37;;
27305;SDS011;14792;50.886;6.468;2024-03-23T06:13:26;27.48;;;5.55;;
27305;SDS011;14792;50.886;6.468;2024-03-23T06:16:28;24.47;;;5.50;;
27305;SDS011;14792;50.886;6.468;2024-03-23T06:19:30;29.67;;;6.00;;
27305;SDS011;14792;50.886;6.468;2024-03-23T06:22:31;26.30;;;6.95;;
27305;SDS011;14792;50.886;6.468;2024-03-23T06:25:33;20.20;;;6.70;;
27305;SDS011;14792;50.886;6.468;2024-03-23T06:28:34;24.85;;;7.65;;
27305;SDS011;14792;50.886;6.468;2024-03-23T06:31:36;28.00;;;8.30;;
27305;SDS011;14792;50.886;6.468;2024-03-23T06:34:37;31.12;;;9.18;;
27305;SDS011;14792;50.886;6.468;2024-03-23T06:37:39;23.98;;;9.28;;
27305;SDS011;14792;50.886;6.468;2024-03-23T06:40:41;26.95;;;9.73;;
27305;SDS011;14792;50.886;6.468;2024-03-23T06:43:43;32.15;;;10.63;;
27305;SDS011;14792;50.886;6.468;2024-03-23T06:46:44;27.70;;;10.10;;
27305;SDS011;14792;50.886;6.468;2024-03-23T06:49:45;20.50;;;9.10;;
27305;SDS011;14792;50.886;6.468;2024-03-23T06:52:47;36.85;;;9.95;;
27305;SDS011;14792;50.886;6.468;2024-03-23T06:55:52;26.80;;;10.18;;
27305;SDS011;14792;50.886;6.468;2024-03-23T06:58:53;30.32;;;10.15;;
27305;SDS011;14792;50.886;6.468;2024-03-23T07:01:54;26.80;;;9.50;;
27305;SDS011;14792;50.886;6.468;2024-03-23T07:04:56;31.02;;;10.72;;
27305;SDS011;14792;50.886;6.468;2024-03-23T07:07:58;31.73;;;10.63;;
27305;SDS011;14792;50.886;6.468;2024-03-23T07:10:59;29.50;;;10.35;;
27305;SDS011;14792;50.886;6.468;2024-03-23T07:14:01;27.17;;;11.03;;
27305;SDS011;14792;50.886;6.468;2024-03-23T07:17:02;31.45;;;11.05;;
27305;SDS011;14792;50.886;6.468;2024-03-23T07:20:04;13.05;;;4.00;;
27305;SDS011;14792;50.886;6.468;2024-03-23T07:23:06;11.45;;;3.10;;
27305;SDS011;14792;50.886;6.468;2024-03-23T07:26:07;9.93;;;3.20;;
27305;SDS011;14792;50.886;6.468;2024-03-23T07:29:09;8.35;;;2.10;;
27305;SDS011;14792;50.886;6.468;2024-03-23T07:32:10;10.25;;;1.77;;
27305;SDS011;14792;50.886;6.468;2024-03-23T07:35:12;10.93;;;1.87;;
27305;SDS011;14792;50.886;6.468;2024-03-23T07:38:14;6.00;;;1.25;;
27305;SDS011;14792;50.886;6.468;2024-03-23T07:41:16;8.03;;;1.75;;
27305;SDS011;14792;50.886;6.468;2024-03-23T07:44:19;9.28;;;2.22;;
27305;SDS011;14792;50.886;6.468;2024-03-23T07:47:21;8.50;;;2.60;;
27305;SDS011;14792;50.886;6.468;2024-03-23T07:50:23;8.20;;;2.50;;
27305;SDS011;14792;50.886;6.468;2024-03-23T07:53:24;8.75;;;2.17;;
27305;SDS011;14792;50.886;6.468;2024-03-23T07:56:26;7.72;;;2.10;;
27305;SDS011;14792;50.886;6.468;2024-03-23T07:59:27;9.68;;;2.90;;
27305;SDS011;14792;50.886;6.468;2024-03-23T08:02:29;13.35;;;4.20;;
27305;SDS011;14792;50.886;6.468;2024-03-23T08:05:30;15.83;;;5.12;;
27305;SDS011;14792;50.886;6.468;2024-03-23T08:08:32;16.82;;;6.47;;
27305;SDS011;14792;50.886;6.468;2024-03-23T08:11:34;18.87;;;7.53;;
27305;SDS011;14792;50.886;6.468;2024-03-23T08:14:35;21.48;;;7.90;;
27305;SDS011;14792;50.886;6.468;2024-03-23T08:17:37;20.82;;;8.20;;
27305;SDS011;14792;50.886;6.468;2024-03-23T08:20:38;27.58;;;10.70;;
27305;SDS011;14792;50.886;6.468;2024-03-23T08:23:40;26.27;;;9.80;;
27305;SDS011;14792;50.886;6.468;2024-03-23T08:26:42;18.90;;;7.72;;
27305;SDS011;14792;50.886;6.468;2024-03-23T08:29:45;23.47;;;7.10;;
27305;SDS011;14792;50.886;6.468;2024-03-23T08:32:45;21.73;;;7.55;;
27305;SDS011;14792;50.886;6.468;2024-03-23T08:35:56;21.02;;;6.92;;
27305;SDS011;14792;50.886;6.468;2024-03-23T08:38:54;22.55;;;6.28;;
27305;SDS011;14792;50.886;6.468;2024-03-23T08:41:56;23.73;;;6.67;;
27305;SDS011;14792;50.886;6.468;2024-03-23T08:44:57;20.30;;;6.10;;
27305;SDS011;14792;50.886;6.468;2024-03-23T08:47:59;17.82;;;5.70;;
27305;SDS011;14792;50.886;6.468;2024-03-23T08:51:01;18.48;;;5.45;;
27305;SDS011;14792;50.886;6.468;2024-03-23T08:54:02;20.00;;;5.78;;
27305;SDS011;14792;50.886;6.468;2024-03-23T08:57:06;22.02;;;5.53;;
27305;SDS011;14792;50.886;6.468;2024-03-23T09:00:08;16.67;;;5.17;;
27305;SDS011;14792;50.886;6.468;2024-03-23T09:03:10;21.33;;;5.08;;
27305;SDS011;14792;50.886;6.468;2024-03-23T09:06:12;21.33;;;5.20;;
27305;SDS011;14792;50.886;6.468;2024-03-23T09:09:13;13.55;;;4.37;;
27305;SDS011;14792;50.886;6.468;2024-03-23T09:12:15;15.68;;;4.15;;
27305;SDS011;14792;50.886;6.468;2024-03-23T09:15:16;16.00;;;3.30;;
27305;SDS011;14792;50.886;6.468;2024-03-23T09:18:18;20.02;;;4.40;;
27305;SDS011;14792;50.886;6.468;2024-03-23T09:21:19;16.62;;;3.35;;
27305;SDS011;14792;50.886;6.468;2024-03-23T09:24:21;13.18;;;3.70;;
27305;SDS011;14792;50.886;6.468;2024-03-23T09:27:22;8.60;;;3.17;;
27305;SDS011;14792;50.886;6.468;2024-03-23T09:30:24;18.75;;;4.55;;
27305;SDS011;14792;50.886;6.468;2024-03-23T09:33:26;14.28;;;3.62;;
27305;SDS011;14792;50.886;6.468;2024-03-23T09:36:27;9.23;;;2.87;;
27305;SDS011;14792;50.886;6.468;2024-03-23T09:39:29;15.58;;;3.65;;
27305;SDS011;14792;50.886;6.468;2024-03-23T09:42:30;15.95;;;3.15;;
27305;SDS011;14792;50.886;6.468;2024-03-23T09:45:32;11.12;;;2.45;;
27305;SDS011;14792;50.886;6.468;2024-03-23T09:48:34;13.30;;;3.10;;
27305;SDS011;14792;50.886;6.468;2024-03-23T09:51:36;12.30;;;2.72;;
27305;SDS011;14792;50.886;6.468;2024-03-23T09:54:37;12.45;;;3.27;;
27305;SDS011;14792;50.886;6.468;2024-03-23T09:57:38;18.27;;;3.20;;
27305;SDS011;14792;50.886;6.468;2024-03-23T10:00:40;12.70;;;2.77;;
27305;SDS011;14792;50.886;6.468;2024-03-23T10:03:45;14.20;;;2.70;;
27305;SDS011;14792;50.886;6.468;2024-03-23T10:06:43;16.27;;;2.90;;
27305;SDS011;14792;50.886;6.468;2024-03-23T10:09:45;11.38;;;2.50;;
27305;SDS011;14792;50.886;6.468;2024-03-23T10:12:47;8.15;;;2.42;;
27305;SDS011;14792;50.886;6.468;2024-03-23T10:15:48;10.68;;;2.80;;
27305;SDS011;14792;50.886;6.468;2024-03-23T10:18:50;6.90;;;1.52;;
27305;SDS011;14792;50.886;6.468;2024-03-23T10:21:55;8.65;;;2.70;;
27305;SDS011;14792;50.886;6.468;2024-03-23T10:24:56;8.18;;;2.27;;
27305;SDS011;14792;50.886;6.468;2024-03-23T10:28:00;13.30;;;2.37;;
27305;SDS011;14792;50.886;6.468;2024-03-23T10:31:05;11.22;;;2.10;;
27305;SDS011;14792;50.886;6.468;2024-03-23T10:34:03;9.53;;;2.52;;
27305;SDS011;14792;50.886;6.468;2024-03-23T10:37:05;8.93;;;2.17;;
27305;SDS011;14792;50.886;6.468;2024-03-23T10:40:06;7.15;;;2.45;;
27305;SDS011;14792;50.886;6.468;2024-03-23T10:43:08;10.25;;;2.27;;
27305;SDS011;14792;50.886;6.468;2024-03-23T10:46:10;6.20;;;1.77;;
27305;SDS011;14792;50.886;6.468;2024-03-23T10:49:11;8.70;;;2.52;;
27305;SDS011;14792;50.886;6.468;2024-03-23T10:52:13;11.93;;;2.58;;
27305;SDS011;14792;50.886;6.468;2024-03-23T10:55:15;11.53;;;2.42;;
27305;SDS011;14792;50.886;6.468;2024-03-23T10:58:24;7.80;;;2.12;;
27305;SDS011;14792;50.886;6.468;2024-03-23T11:01:23;8.95;;;2.20;;
27305;SDS011;14792;50.886;6.468;2024-03-23T11:04:31;9.43;;;2.52;;
27305;SDS011;14792;50.886;6.468;2024-03-23T11:07:32;7.58;;;1.75;;
27305;SDS011;14792;50.886;6.468;2024-03-23T11:10:34;7.00;;;1.85;;
27305;SDS011;14792;50.886;6.468;2024-03-23T11:13:35;10.82;;;1.90;;
27305;SDS011;14792;50.886;6.468;2024-03-23T11:16:37;6.10;;;2.02;;
27305;SDS011;14792;50.886;6.468;2024-03-23T11:19:38;11.15;;;1.90;;
27305;SDS011;14792;50.886;6.468;2024-03-23T11:22:44;9.43;;;1.65;;
27305;SDS011;14792;50.886;6.468;2024-03-23T11:25:45;9.93;;;1.50;;
27305;SDS011;14792;50.886;6.468;2024-03-23T11:28:46;7.08;;;1.70;;
27305;SDS011;14792;50.886;6.468;2024-03-23T11:31:48;6.40;;;1.50;;
27305;SDS011;14792;50.886;6.468;2024-03-23T11:34:50;7.75;;;1.80;;
27305;SDS011;14792;50.886;6.468;2024-03-23T11:41:07;8.98;;;1.85;;
27305;SDS011;14792;50.886;6.468;2024-03-23T11:44:14;9.73;;;1.85;;
27305;SDS011;14792;50.886;6.468;2024-03-23T11:47:13;7.37;;;1.67;;
27305;SDS011;14792;50.886;6.468;2024-03-23T11:50:20;11.28;;;2.50;;
27305;SDS011;14792;50.886;6.468;2024-03-23T11:53:22;12.10;;;2.30;;
27305;SDS011;14792;50.886;6.468;2024-03-23T11:56:23;10.72;;;2.50;;
27305;SDS011;14792;50.886;6.468;2024-03-23T11:59:35;9.25;;;2.17;;
27305;SDS011;14792;50.886;6.468;2024-03-23T12:02:35;6.42;;;1.25;;
27305;SDS011;14792;50.886;6.468;2024-03-23T12:05:37;5.60;;;0.98;;
27305;SDS011;14792;50.886;6.468;2024-03-23T12:08:39;5.33;;;0.95;;
27305;SDS011;14792;50.886;6.468;2024-03-23T12:11:40;7.75;;;2.67;;
27305;SDS011;14792;50.886;6.468;2024-03-23T12:14:42;4.05;;;1.90;;
27305;SDS011;14792;50.886;6.468;2024-03-23T12:17:46;3.17;;;1.60;;
27305;SDS011;14792;50.886;6.468;2024-03-23T12:20:47;4.62;;;1.00;;
27305;SDS011;14792;50.886;6.468;2024-03-23T12:23:49;4.25;;;1.50;;
27305;SDS011;14792;50.886;6.468;2024-03-23T12:26:51;3.72;;;1.70;;
27305;SDS011;14792;50.886;6.468;2024-03-23T12:29:53;7.17;;;2.87;;
27305;SDS011;14792;50.886;6.468;2024-03-23T12:32:55;2.30;;;1.02;;
27305;SDS011;14792;50.886;6.468;2024-03-23T12:35:56;4.25;;;1.20;;
27305;SDS011;14792;50.886;6.468;2024-03-23T12:38:58;7.08;;;1.50;;
27305;SDS011;14792;50.886;6.468;2024-03-23T12:41:59;7.35;;;1.75;;
27305;SDS011;14792;50.886;6.468;2024-03-23T12:45:01;9.50;;;1.85;;
27305;SDS011;14792;50.886;6.468;2024-03-23T12:48:03;8.53;;;2.05;;
27305;SDS011;14792;50.886;6.468;2024-03-23T12:51:04;4.92;;;1.70;;
27305;SDS011;14792;50.886;6.468;2024-03-23T12:54:06;4.80;;;1.60;;
27305;SDS011;14792;50.886;6.468;2024-03-23T12:57:07;7.62;;;2.10;;
27305;SDS011;14792;50.886;6.468;2024-03-23T13:00:09;6.53;;;2.02;;
27305;SDS011;14792;50.886;6.468;2024-03-23T13:03:13;8.35;;;2.00;;
27305;SDS011;14792;50.886;6.468;2024-03-23T13:06:15;5.05;;;2.00;;
27305;SDS011;14792;50.886;6.468;2024-03-23T13:09:16;6.12;;;2.05;;
27305;SDS011;14792;50.886;6.468;2024-03-23T13:12:18;10.70;;;2.65;;
27305;SDS011;14792;50.886;6.468;2024-03-23T13:15:21;7.30;;;2.35;;
27305;SDS011;14792;50.886;6.468;2024-03-23T13:18:22;9.78;;;2.70;;
27305;SDS011;14792;50.886;6.468;2024-03-23T13:21:24;5.35;;;2.05;;
27305;SDS011;14792;50.886;6.468;2024-03-23T13:24:26;9.98;;;2.45;;
27305;SDS011;14792;50.886;6.468;2024-03-23T13:27:29;6.03;;;2.17;;
27305;SDS011;14792;50.886;6.468;2024-03-23T13:30:31;9.48;;;1.87;;
27305;SDS011;14792;50.886;6.468;2024-03-23T13:33:33;4.12;;;1.57;;
27305;SDS011;14792;50.886;6.468;2024-03-23T13:36:34;5.85;;;1.67;;
27305;SDS011;14792;50.886;6.468;2024-03-23T13:39:36;9.45;;;1.95;;
27305;SDS011;14792;50.886;6.468;2024-03-23T13:42:37;6.37;;;2.12;;
27305;SDS011;14792;50.886;6.468;2024-03-23T13:45:39;4.10;;;1.98;;
27305;SDS011;14792;50.886;6.468;2024-03-23T13:48:41;5.97;;;2.77;;
27305;SDS011;14792;50.886;6.468;2024-03-23T13:51:43;8.28;;;2.72;;
27305;SDS011;14792;50.886;6.468;2024-03-23T13:54:44;11.88;;;4.37;;
27305;SDS011;14792;50.886;6.468;2024-03-23T13:57:45;5.87;;;3.20;;
27305;SDS011;14792;50.886;6.468;2024-03-23T14:00:47;15.20;;;5.20;;
27305;SDS011;14792;50.886;6.468;2024-03-23T14:03:48;8.63;;;3.52;;
27305;SDS011;14792;50.886;6.468;2024-03-23T14:06:50;11.05;;;3.37;;
27305;SDS011;14792;50.886;6.468;2024-03-23T14:09:52;4.17;;;2.12;;
27305;SDS011;14792;50.886;6.468;2024-03-23T14:12:53;7.12;;;2.45;;
27305;SDS011;14792;50.886;6.468;2024-03-23T14:15:55;7.95;;;3.80;;
27305;SDS011;14792;50.886;6.468;2024-03-23T14:18:56;8.10;;;2.62;;
27305;SDS011;14792;50.886;6.468;2024-03-23T14:21:58;6.50;;;2.80;;
27305;SDS011;14792;50.886;6.468;2024-03-23T14:24:59;7.83;;;2.50;;
27305;SDS011;14792;50.886;6.468;2024-03-23T14:28:01;9.50;;;2.87;;
27305;SDS011;14792;50.886;6.468;2024-03-23T14:31:03;5.22;;;1.82;;
27305;SDS011;14792;50.886;6.468;2024-03-23T14:34:04;6.40;;;1.92;;
27305;SDS011;14792;50.886;6.468;2024-03-23T14:37:06;9.75;;;2.37;;
27305;SDS011;14792;50.886;6.468;2024-03-23T14:40:07;10.13;;;1.92;;
27305;SDS011;14792;50.886;6.468;2024-03-23T14:43:10;8.70;;;2.10;;
27305;SDS011;14792;50.886;6.468;2024-03-23T14:46:13;7.33;;;2.10;;
27305;SDS011;14792;50.886;6.468;2024-03-23T14:49:14;5.80;;;1.92;;
27305;SDS011;14792;50.886;6.468;2024-03-23T14:52:15;5.55;;;2.12;;
27305;SDS011;14792;50.886;6.468;2024-03-23T14:55:19;4.80;;;1.92;;
27305;SDS011;14792;50.886;6.468;2024-03-23T14:58:21;8.85;;;2.17;;
27305;SDS011;14792;50.886;6.468;2024-03-23T15:01:22;8.05;;;2.10;;
27305;SDS011;14792;50.886;6.468;2024-03-23T15:04:24;16.52;;;2.85;;
27305;SDS011;14792;50.886;6.468;2024-03-23T15:07:26;6.28;;;2.00;;
27305;SDS011;14792;50.886;6.468;2024-03-23T15:10:27;9.43;;;2.37;;
27305;SDS011;14792;50.886;6.468;2024-03-23T15:13:29;6.62;;;2.08;;
27305;SDS011;14792;50.886;6.468;2024-03-23T15:16:30;6.97;;;2.22;;
27305;SDS011;14792;50.886;6.468;2024-03-23T15:19:32;7.33;;;2.17;;
27305;SDS011;14792;50.886;6.468;2024-03-23T15:22:34;5.60;;;2.37;;
27305;SDS011;14792;50.886;6.468;2024-03-23T15:25:35;5.33;;;2.27;;
27305;SDS011;14792;50.886;6.468;2024-03-23T15:28:37;6.97;;;3.17;;
27305;SDS011;14792;50.886;6.468;2024-03-23T15:31:38;7.83;;;2.33;;
27305;SDS011;14792;50.886;6.468;2024-03-23T15:34:40;3.37;;;2.08;;
27305;SDS011;14792;50.886;6.468;2024-03-23T15:37:42;6.10;;;2.80;;
27305;SDS011;14792;50.886;6.468;2024-03-23T15:40:50;3.77;;;1.70;;
27305;SDS011;14792;50.886;6.468;2024-03-23T15:43:45;1.77;;;1.00;;
27305;SDS011;14792;50.886;6.468;2024-03-23T15:46:46;3.35;;;1.15;;
27305;SDS011;14792;50.886;6.468;2024-03-23T15:49:48;3.72;;;1.27;;
27305;SDS011;14792;50.886;6.468;2024-03-23T15:52:50;2.22;;;0.72;;
27305;SDS011;14792;50.886;6.468;2024-03-23T15:55:54;3.17;;;1.20;;
27305;SDS011;14792;50.886;6.468;2024-03-23T15:58:56;3.37;;;1.32;;
27305;SDS011;14792;50.886;6.468;2024-03-23T16:01:57;2.65;;;1.40;;
27305;SDS011;14792;50.886;6.468;2024-03-23T16:04:59;5.22;;;1.52;;
27305;SDS011;14792;50.886;6.468;2024-03-23T16:08:01;6.67;;;1.90;;
27305;SDS011;14792;50.886;6.468;2024-03-23T16:11:03;5.33;;;1.60;;
27305;SDS011;14792;50.886;6.468;2024-03-23T16:14:04;4.78;;;1.60;;
27305;SDS011;14792;50.886;6.468;2024-03-23T16:17:05;3.47;;;1.50;;
27305;SDS011;14792;50.886;6.468;2024-03-23T16:20:07;5.85;;;2.10;;
27305;SDS011;14792;50.886;6.468;2024-03-23T16:23:09;3.62;;;1.70;;
27305;SDS011;14792;50.886;6.468;2024-03-23T16:26:10;5.00;;;1.62;;
27305;SDS011;14792;50.886;6.468;2024-03-23T16:29:12;2.87;;;1.42;;
27305;SDS011;14792;50.886;6.468;2024-03-23T16:32:13;5.37;;;1.75;;
27305;SDS011;14792;50.886;6.468;2024-03-23T16:35:15;5.33;;;1.80;;
27305;SDS011;14792;50.886;6.468;2024-03-23T16:38:16;2.47;;;1.30;;
27305;SDS011;14792;50.886;6.468;2024-03-23T16:41:18;3.30;;;1.20;;
27305;SDS011;14792;50.886;6.468;2024-03-23T16:44:20;7.97;;;1.60;;
27305;SDS011;14792;50.886;6.468;2024-03-23T16:47:21;8.35;;;1.57;;
27305;SDS011;14792;50.886;6.468;2024-03-23T16:50:23;7.70;;;2.20;;
27305;SDS011;14792;50.886;6.468;2024-03-23T16:53:24;7.40;;;2.25;;
27305;SDS011;14792;50.886;6.468;2024-03-23T16:56:26;7.47;;;2.30;;
27305;SDS011;14792;50.886;6.468;2024-03-23T16:59:28;5.65;;;2.72;;
27305;SDS011;14792;50.886;6.468;2024-03-23T17:02:29;8.50;;;2.30;;
27305;SDS011;14792;50.886;6.468;2024-03-23T17:05:37;5.33;;;2.05;;
27305;SDS011;14792;50.886;6.468;2024-03-23T17:08:38;9.45;;;3.55;;
27305;SDS011;14792;50.886;6.468;2024-03-23T17:11:40;11.65;;;5.28;;
27305;SDS011;14792;50.886;6.468;2024-03-23T17:14:41;14.10;;;4.42;;
27305;SDS011;14792;50.886;6.468;2024-03-23T17:17:43;10.25;;;4.03;;
27305;SDS011;14792;50.886;6.468;2024-03-23T17:20:44;8.63;;;4.17;;
27305;SDS011;14792;50.886;6.468;2024-03-23T17:23:46;8.78;;;2.85;;
27305;SDS011;14792;50.886;6.468;2024-03-23T17:26:47;7.85;;;2.92;;
27305;SDS011;14792;50.886;6.468;2024-03-23T17:29:49;11.57;;;4.65;;
27305;SDS011;14792;50.886;6.468;2024-03-23T17:32:51;14.98;;;5.50;;
27305;SDS011;14792;50.886;6.468;2024-03-23T17:35:52;13.90;;;5.75;;
27305;SDS011;14792;50.886;6.468;2024-03-23T17:38:54;22.62;;;8.93;;
27305;SDS011;14792;50.886;6.468;2024-03-23T17:41:55;19.07;;;7.30;;
27305;SDS011;14792;50.886;6.468;2024-03-23T17:44:57;17.90;;;6.35;;
27305;SDS011;14792;50.886;6.468;2024-03-23T17:47:59;11.30;;;5.37;;
27305;SDS011;14792;50.886;6.468;2024-03-23T17:51:03;8.53;;;3.22;;
27305;SDS011;14792;50.886;6.468;2024-03-23T17:54:05;9.18;;;4.42;;
27305;SDS011;14792;50.886;6.468;2024-03-23T17:57:06;7.40;;;2.40;;
27305;SDS011;14792;50.886;6.468;2024-03-23T18:00:08;8.73;;;3.22;;
27305;SDS011;14792;50.886;6.468;2024-03-23T18:03:09;10.05;;;2.55;;
27305;SDS011;14792;50.886;6.468;2024-03-23T18:06:11;4.78;;;2.62;;
27305;SDS011;14792;50.886;6.468;2024-03-23T18:09:15;6.35;;;2.27;;
27305;SDS011;14792;50.886;6.468;2024-03-23T18:12:14;9.33;;;2.80;;
27305;SDS011;14792;50.886;6.468;2024-03-23T18:15:16;9.18;;;2.95;;
27305;SDS011;14792;50.886;6.468;2024-03-23T18:18:17;12.82;;;6.22;;
27305;SDS011;14792;50.886;6.468;2024-03-23T18:21:19;8.55;;;3.02;;
27305;SDS011;14792;50.886;6.468;2024-03-23T18:24:20;12.82;;;4.78;;
27305;SDS011;14792;50.886;6.468;2024-03-23T18:27:22;7.75;;;2.98;;
27305;SDS011;14792;50.886;6.468;2024-03-23T18:30:24;7.95;;;3.30;;
27305;SDS011;14792;50.886;6.468;2024-03-23T18:33:26;10.95;;;4.00;;
27305;SDS011;14792;50.886;6.468;2024-03-23T18:36:27;17.70;;;7.08;;
27305;SDS011;14792;50.886;6.468;2024-03-23T18:39:28;6.72;;;3.70;;
27305;SDS011;14792;50.886;6.468;2024-03-23T18:42:31;7.53;;;1.92;;
27305;SDS011;14792;50.886;6.468;2024-03-23T18:45:31;5.22;;;2.65;;
27305;SDS011;14792;50.886;6.468;2024-03-23T18:48:33;7.85;;;3.30;;
27305;SDS011;14792;50.886;6.468;2024-03-23T18:51:35;13.28;;;6.30;;
27305;SDS011;14792;50.886;6.468;2024-03-23T18:54:36;12.80;;;5.92;;
27305;SDS011;14792;50.886;6.468;2024-03-23T18:57:38;8.48;;;2.98;;
27305;SDS011;14792;50.886;6.468;2024-03-23T19:00:39;6.47;;;2.10;;
27305;SDS011;14792;50.886;6.468;2024-03-23T19:03:41;6.90;;;3.10;;